Time;durP1;ratioP1;P1;durP2;ratioP2;P2;SDS_P1;SDS_P2;PMS_P1;PMS_P2;Temp;Humidity;BMP_temperature;BMP_pressure;BME280_temperature;BME280_humidity;BME280_pressure;Samples;Min_cycle;Max_cycle;Signal;HPM_P1;HPM_P2
2023/06/22 03:00:45;;;;;;;72.47;68.13;;;18.80;99.90;;;;;;5634534;23;20267;-69
2023/06/22 03:03:13;;;;;;;49.88;46.72;;;;;;;;;;4878533;29;20275;-69
2023/06/22 03:05:47;;;;;;;41.50;38.47;;;;;;;;;;4876790;29;20215;-70
2023/06/22 03:08:12;;;;;;;42.03;38.87;;;18.60;99.90;;;;;;4876936;29;20211;-69
2023/06/22 03:10:38;;;;;;;32.30;29.40;;;18.60;99.90;;;;;;4877935;29;20215;-69
2023/06/22 03:13:04;;;;;;;24.20;21.83;;;18.60;99.90;;;;;;4894059;29;20723;-70
2023/06/22 03:15:31;;;;;;;66.63;61.73;;;18.70;99.90;;;;;;4896183;24;20232;-67
2023/06/22 03:17:57;;;;;;;35.20;32.40;;;18.60;99.90;;;;;;4866756;29;20224;-66
2023/06/22 03:20:23;;;;;;;66.90;62.70;;;18.50;99.90;;;;;;4877840;29;20636;-69
2023/06/22 03:22:48;;;;;;;45.57;42.30;;;18.50;99.90;;;;;;4877028;29;20725;-66
2023/06/22 03:25:14;;;;;;;40.67;37.57;;;18.60;99.90;;;;;;4870922;29;20205;-68
2023/06/22 03:27:41;;;;;;;45.50;41.92;;;18.60;99.90;;;;;;4877427;29;20203;-68
2023/06/22 03:30:09;;;;;;;33.33;30.77;;;18.60;99.90;;;;;;4866724;29;20191;-69
2023/06/22 03:32:35;;;;;;;37.78;35.15;;;18.60;99.90;;;;;;4872854;29;20196;-69
2023/06/22 03:35:02;;;;;;;45.95;42.75;;;18.50;99.90;;;;;;4875166;29;20189;-68
2023/06/22 03:37:28;;;;;;;37.20;34.13;;;18.50;99.90;;;;;;4870707;29;20231;-68
2023/06/22 03:39:54;;;;;;;59.53;55.38;;;18.50;99.90;;;;;;4871296;29;20423;-68
2023/06/22 03:42:19;;;;;;;29.93;27.80;;;18.40;99.90;;;;;;4877666;29;20802;-69
2023/06/22 03:44:45;;;;;;;52.53;49.00;;;18.40;99.90;;;;;;4871132;29;20203;-69
2023/06/22 03:47:12;;;;;;;35.97;32.93;;;18.40;99.90;;;;;;4867207;29;20275;-69
2023/06/22 03:49:37;;;;;;;71.47;66.87;;;18.60;99.90;;;;;;4873330;29;20196;-68
2023/06/22 03:52:03;;;;;;;65.05;60.95;;;18.70;99.90;;;;;;4877388;29;20199;-68
2023/06/22 03:54:30;;;;;;;130.70;123.15;;;18.70;99.90;;;;;;4877190;29;20274;-68
2023/06/22 03:56:57;;;;;;;100.00;94.17;;;18.70;99.90;;;;;;4873357;29;20211;-68
2023/06/22 03:59:23;;;;;;;61.17;57.08;;;18.70;99.90;;;;;;4876218;29;20197;-68
2023/06/22 04:01:50;;;;;;;87.77;82.47;;;18.80;99.90;;;;;;4877012;29;20286;-68
2023/06/22 04:04:16;;;;;;;68.13;63.87;;;;;;;;;;4869762;29;20239;-68
2023/06/22 04:06:42;;;;;;;200.90;189.90;;;19.20;99.90;;;;;;4877040;29;20223;-68
2023/06/22 04:09:08;;;;;;;97.07;91.60;;;19.40;99.90;;;;;;4876491;29;20669;-68
2023/06/22 04:11:33;;;;;;;23.10;21.17;;;19.30;99.90;;;;;;4883021;29;20261;-71
2023/06/22 04:14:00;;;;;;;14.10;12.57;;;19.20;99.90;;;;;;4875951;29;20631;-71
2023/06/22 04:16:26;;;;;;;96.13;90.37;;;;;;;;;;4875769;29;20426;-71
2023/06/22 04:18:53;;;;;;;117.47;110.60;;;;;;;;;;4875401;29;20220;-71
2023/06/22 04:21:19;;;;;;;92.97;87.40;;;19.30;99.90;;;;;;4876527;29;20664;-70
2023/06/22 04:23:46;;;;;;;21.77;19.83;;;19.40;99.90;;;;;;4877081;29;20311;-69
2023/06/22 04:26:13;;;;;;;19.40;17.80;;;19.50;99.90;;;;;;4863170;29;20214;-69
2023/06/22 04:28:39;;;;;;;51.35;47.75;;;19.50;99.90;;;;;;4873196;29;20220;-69
2023/06/22 04:31:04;;;;;;;161.87;153.17;;;19.60;99.90;;;;;;4875373;29;20235;-69
2023/06/22 04:33:31;;;;;;;64.77;61.00;;;19.70;99.90;;;;;;4876619;29;20196;-70
2023/06/22 04:35:57;;;;;;;26.70;24.90;;;19.80;99.90;;;;;;4876534;29;20307;-69
2023/06/22 04:38:25;;;;;;;19.85;18.15;;;19.90;99.90;;;;;;4876452;29;20272;-69
2023/06/22 04:40:51;;;;;;;17.77;16.13;;;20.00;99.90;;;;;;4877512;29;20203;-69
2023/06/22 04:43:16;;;;;;;21.95;19.95;;;20.10;99.90;;;;;;4877498;29;20267;-69
2023/06/22 04:45:42;;;;;;;22.23;20.65;;;20.10;99.90;;;;;;4876434;29;20645;-69
2023/06/22 04:48:09;;;;;;;21.27;19.15;;;20.20;99.90;;;;;;4875817;29;20283;-69
2023/06/22 04:50:38;;;;;;;21.10;19.50;;;20.20;99.90;;;;;;4876318;29;20208;-73
2023/06/22 04:53:05;;;;;;;19.73;18.13;;;20.40;99.90;;;;;;4876573;29;20252;-69
2023/06/22 04:55:32;;;;;;;16.58;14.95;;;20.50;99.90;;;;;;4875894;29;20311;-69
2023/06/22 04:58:04;;;;;;;26.58;24.30;;;20.60;99.90;;;;;;4874674;29;20711;-69
2023/06/22 05:00:31;;;;;;;42.58;39.63;;;20.80;99.90;;;;;;4875220;29;20243;-68
2023/06/22 05:02:57;;;;;;;32.22;29.95;;;21.00;99.90;;;;;;4875975;29;20243;-68
2023/06/22 05:05:24;;;;;;;83.88;79.32;;;21.00;99.90;;;;;;4875935;29;20212;-68
2023/06/22 05:07:59;;;;;;;41.38;38.60;;;21.20;99.90;;;;;;4875488;29;20193;-68
2023/06/22 05:10:26;;;;;;;145.82;137.80;;;21.50;99.90;;;;;;4877694;29;20583;-68
2023/06/22 05:12:51;;;;;;;265.45;250.88;;;21.90;99.90;;;;;;4879472;29;20199;-68
2023/06/22 05:15:19;;;;;;;114.60;108.25;;;22.30;99.90;;;;;;4879441;29;20232;-68
2023/06/22 05:17:45;;;;;;;19.20;17.70;;;22.80;99.90;;;;;;4878775;29;20626;-68
2023/06/22 05:20:12;;;;;;;21.83;19.73;;;23.40;99.90;;;;;;4879333;29;20197;-68
2023/06/22 05:22:39;;;;;;;21.65;19.85;;;23.80;99.90;;;;;;4879439;29;20192;-68
2023/06/22 05:25:08;;;;;;;22.23;20.73;;;24.00;99.90;;;;;;4879154;29;20203;-67
2023/06/22 05:27:33;;;;;;;16.40;14.85;;;24.20;99.90;;;;;;4879173;29;20195;-68
2023/06/22 05:29:59;;;;;;;31.23;29.08;;;24.50;99.90;;;;;;4879315;29;20200;-67
2023/06/22 05:32:25;;;;;;;36.72;34.08;;;24.70;99.90;;;;;;4878702;29;20193;-68
2023/06/22 05:34:51;;;;;;;20.55;18.92;;;25.00;99.90;;;;;;4879033;29;20200;-66
2023/06/22 05:37:17;;;;;;;24.97;22.97;;;25.30;99.90;;;;;;4878745;29;20429;-78
2023/06/22 05:39:43;;;;;;;18.05;16.65;;;25.40;99.90;;;;;;4877780;29;20192;-77
2023/06/22 05:42:09;;;;;;;24.92;23.10;;;25.50;99.90;;;;;;4877285;29;20462;-75
2023/06/22 05:44:35;;;;;;;23.90;22.33;;;25.50;99.90;;;;;;4878256;29;20565;-75
2023/06/22 05:47:01;;;;;;;65.70;61.90;;;25.60;99.90;;;;;;4876582;29;20212;-75
2023/06/22 05:49:32;;;;;;;189.38;179.90;;;25.80;99.90;;;;;;4877910;29;20205;-77
2023/06/22 05:51:59;;;;;;;276.73;262.35;;;25.90;99.90;;;;;;4878372;29;20629;-77
2023/06/22 05:54:25;;;;;;;227.35;216.02;;;26.10;99.90;;;;;;4879191;29;20192;-76
2023/06/22 05:56:51;;;;;;;181.45;172.13;;;26.30;99.90;;;;;;4878690;29;20224;-74
2023/06/22 05:59:17;;;;;;;98.32;93.18;;;26.50;99.90;;;;;;4879091;29;20223;-74
2023/06/22 06:01:43;;;;;;;24.58;23.08;;;26.60;99.90;;;;;;4879631;29;20192;-74
2023/06/22 06:04:08;;;;;;;12.05;11.05;;;26.70;99.90;;;;;;4897596;29;20188;-74
2023/06/22 06:06:36;;;;;;;23.73;22.15;;;27.00;99.90;;;;;;4874880;29;20588;-75
2023/06/22 06:09:07;;;;;;;22.13;20.65;;;27.40;99.90;;;;;;4877738;29;20279;-75
2023/06/22 06:11:33;;;;;;;19.00;17.67;;;28.00;99.90;;;;;;4877851;29;20203;-75
2023/06/22 06:13:59;;;;;;;22.63;21.05;;;28.20;99.90;;;;;;4879160;29;20204;-75
2023/06/22 06:16:25;;;;;;;26.75;25.13;;;28.50;99.90;;;;;;4877362;29;20234;-75
2023/06/22 06:18:50;;;;;;;24.75;23.15;;;28.60;99.90;;;;;;4878501;29;20668;-75
2023/06/22 06:21:16;;;;;;;14.98;13.85;;;28.50;99.90;;;;;;4878033;29;20244;-75
2023/06/22 06:23:42;;;;;;;10.63;8.52;;;28.90;99.90;;;;;;4880743;29;20188;-74
2023/06/22 06:26:08;;;;;;;9.45;8.55;;;29.30;99.90;;;;;;4878674;29;20213;-75
2023/06/22 06:28:35;;;;;;;10.48;9.65;;;29.30;99.90;;;;;;4878596;29;20199;-77
2023/06/22 06:31:01;;;;;;;8.80;8.02;;;29.10;99.90;;;;;;4875230;29;20673;-75
2023/06/22 06:33:27;;;;;;;9.57;8.85;;;28.90;99.90;;;;;;4872790;29;20203;-75
2023/06/22 06:35:53;;;;;;;10.65;9.93;;;29.50;99.90;;;;;;4876902;29;20223;-75
2023/06/22 06:38:18;;;;;;;17.33;15.82;;;29.80;99.90;;;;;;4876566;29;20216;-75
2023/06/22 06:40:45;;;;;;;15.25;14.15;;;30.10;99.90;;;;;;4877040;29;20336;-74
2023/06/22 06:43:10;;;;;;;17.55;16.25;;;29.70;99.90;;;;;;4876938;29;20200;-75
2023/06/22 06:45:36;;;;;;;19.20;17.65;;;29.80;99.90;;;;;;4877981;29;20217;-75
2023/06/22 06:48:02;;;;;;;10.48;9.55;;;30.00;99.90;;;;;;4876498;29;20219;-75
2023/06/22 06:50:28;;;;;;;10.07;6.95;;;29.80;99.90;;;;;;4877012;29;20337;-75
2023/06/22 06:52:54;;;;;;;7.53;6.78;;;29.60;99.90;;;;;;4878009;29;20571;-76
2023/06/22 06:55:20;;;;;;;16.38;15.07;;;29.10;99.90;;;;;;4878224;29;20223;-76
2023/06/22 06:57:48;;;;;;;14.63;13.32;;;28.80;99.90;;;;;;4876495;29;20219;-77
2023/06/22 07:00:15;;;;;;;11.70;10.70;;;28.60;99.90;;;;;;4878478;29;20188;-77
2023/06/22 07:02:45;;;;;;;9.20;7.28;;;28.50;99.90;;;;;;4877660;29;20197;-77
2023/06/22 07:05:12;;;;;;;12.82;11.93;;;28.90;99.90;;;;;;4878371;29;20215;-75
2023/06/22 07:07:38;;;;;;;13.45;12.27;;;29.40;99.90;;;;;;4877538;29;20441;-75
2023/06/22 07:10:05;;;;;;;9.65;7.88;;;29.60;99.90;;;;;;4877757;29;20192;-75
2023/06/22 07:12:31;;;;;;;11.77;10.85;;;29.50;99.90;;;;;;4877759;29;20192;-74
2023/06/22 07:15:10;;;;;;;8.13;7.43;;;29.50;99.90;;;;;;4877329;29;20223;-75
2023/06/22 07:17:36;;;;;;;8.93;8.13;;;30.20;99.90;;;;;;4877248;29;20269;-76
2023/06/22 07:20:08;;;;;;;28.38;26.63;;;30.40;99.90;;;;;;4877446;29;20187;-75
2023/06/22 07:22:34;;;;;;;14.68;13.68;;;30.50;99.90;;;;;;4877579;29;20204;-77
2023/06/22 07:24:59;;;;;;;26.65;25.05;;;29.90;99.90;;;;;;4876245;29;20569;-75
2023/06/22 07:27:25;;;;;;;37.50;35.30;;;30.30;99.90;;;;;;4877216;29;20192;-75
2023/06/22 07:29:51;;;;;;;63.40;59.22;;;30.80;99.90;;;;;;4877491;29;20691;-75
2023/06/22 07:32:17;;;;;;;58.45;55.25;;;30.70;99.90;;;;;;4877344;29;20200;-75
2023/06/22 07:34:43;;;;;;;71.30;67.40;;;30.70;99.90;;;;;;4876371;29;20193;-75
2023/06/22 07:37:09;;;;;;;39.45;36.92;;;29.70;99.90;;;;;;4876703;29;20220;-75
2023/06/22 07:39:35;;;;;;;41.58;39.40;;;29.50;99.90;;;;;;4875984;29;20206;-75
2023/06/22 07:42:00;;;;;;;35.92;33.92;;;29.90;99.90;;;;;;4875936;29;20200;-76
2023/06/22 07:44:26;;;;;;;26.33;24.55;;;30.00;99.90;;;;;;4878019;29;20192;-75
2023/06/22 07:46:52;;;;;;;11.25;10.27;;;29.70;99.90;;;;;;4888522;29;20208;-74
2023/06/22 07:49:17;;;;;;;9.35;7.78;;;29.50;99.90;;;;;;4886090;29;20212;-75
2023/06/22 07:51:43;;;;;;;8.38;7.68;;;29.20;99.90;;;;;;4877267;29;20211;-75
2023/06/22 07:54:09;;;;;;;15.90;14.77;;;29.70;99.90;;;;;;4885052;29;20312;-76
2023/06/22 07:56:37;;;;;;;41.35;38.45;;;29.80;99.90;;;;;;4878453;29;20356;-76
2023/06/22 07:59:03;;;;;;;68.30;64.70;;;30.20;99.90;;;;;;4873364;29;20299;-77
2023/06/22 08:01:29;;;;;;;69.55;65.50;;;30.30;99.90;;;;;;4872123;29;20635;-76
2023/06/22 08:03:55;;;;;;;42.05;39.63;;;30.30;99.90;;;;;;4877031;29;20283;-76
2023/06/22 08:06:21;;;;;;;15.20;13.70;;;30.70;99.90;;;;;;4875924;29;20249;-75
2023/06/22 08:08:52;;;;;;;7.57;6.43;;;30.80;99.50;;;;;;4877024;29;20203;-77
2023/06/22 08:11:18;;;;;;;41.25;38.55;;;31.40;99.40;;;;;;4877280;29;20214;-77
2023/06/22 08:13:44;;;;;;;104.03;98.47;;;32.10;97.50;;;;;;4876126;29;20653;-76
2023/06/22 08:16:10;;;;;;;88.13;83.57;;;32.10;96.90;;;;;;4876521;29;20232;-76
2023/06/22 08:18:35;;;;;;;60.40;57.08;;;31.50;96.90;;;;;;4876513;29;20208;-76
2023/06/22 08:21:01;;;;;;;55.35;52.15;;;31.10;97.40;;;;;;4876709;29;20271;-76
2023/06/22 08:23:27;;;;;;;63.45;59.88;;;30.90;97.80;;;;;;4876739;29;20192;-74
2023/06/22 08:25:53;;;;;;;46.13;43.47;;;31.00;97.20;;;;;;4876595;29;20239;-76
2023/06/22 08:28:19;;;;;;;68.30;64.45;;;31.00;97.60;;;;;;4875275;29;20255;-76
2023/06/22 08:30:44;;;;;;;85.25;80.50;;;31.40;96.90;;;;;;4875565;29;20695;-77
2023/06/22 08:33:10;;;;;;;107.40;101.63;;;31.70;96.80;;;;;;4876848;29;20729;-76
2023/06/22 08:35:36;;;;;;;95.57;90.63;;;32.20;95.50;;;;;;4876574;29;20227;-75
2023/06/22 08:38:02;;;;;;;82.97;78.38;;;32.50;93.90;;;;;;4876140;29;20215;-76
2023/06/22 08:40:29;;;;;;;63.80;60.22;;;32.60;93.70;;;;;;4875571;29;20545;-76
2023/06/22 08:42:54;;;;;;;28.10;25.70;;;32.90;93.30;;;;;;4876769;29;20283;-76
2023/06/22 08:45:20;;;;;;;37.03;34.78;;;33.10;92.30;;;;;;4878262;29;20658;-76
2023/06/22 08:47:46;;;;;;;23.35;21.67;;;33.30;92.10;;;;;;4879817;29;20224;-75
2023/06/22 08:50:12;;;;;;;18.35;16.88;;;33.40;91.40;;;;;;4880406;29;20196;-76
2023/06/22 08:52:43;;;;;;;12.98;8.23;;;34.10;90.70;;;;;;4879290;29;20199;-76
2023/06/22 08:55:09;;;;;;;10.63;8.10;;;34.60;88.70;;;;;;4878958;29;20219;-76
2023/06/22 08:57:37;;;;;;;13.23;11.85;;;34.50;86.40;;;;;;4880015;29;20267;-76
2023/06/22 09:00:17;;;;;;;27.02;24.70;;;35.00;85.70;;;;;;4880425;29;20222;-76
2023/06/22 09:02:44;;;;;;;54.15;50.75;;;35.60;84.70;;;;;;4879143;29;20191;-74
2023/06/22 09:05:10;;;;;;;45.70;42.88;;;36.30;82.00;;;;;;4879952;29;20252;-77
2023/06/22 09:07:36;;;;;;;44.38;41.40;;;36.00;79.50;;;;;;4878669;29;20673;-75
2023/06/22 09:10:04;;;;;;;57.15;53.83;;;35.60;80.30;;;;;;4879735;29;20613;-75
2023/06/22 09:12:30;;;;;;;68.13;63.95;;;35.90;80.10;;;;;;4880268;29;20191;-75
2023/06/22 09:14:56;;;;;;;50.70;47.38;;;36.10;77.50;;;;;;4878273;29;20192;-77
2023/06/22 09:17:22;;;;;;;48.72;45.65;;;36.40;76.80;;;;;;4910749;24;20239;-76
2023/06/22 09:19:48;;;;;;;26.00;24.50;;;36.60;76.40;;;;;;4898092;29;20668;-76
2023/06/22 09:22:14;;;;;;;29.85;27.33;;;36.60;75.70;;;;;;4898359;29;20195;-75
2023/06/22 09:24:40;;;;;;;26.35;24.58;;;36.80;74.90;;;;;;4898175;29;20195;-76
2023/06/22 09:27:06;;;;;;;28.20;26.23;;;36.90;73.40;;;;;;4897836;29;20306;-76
2023/06/22 09:29:33;;;;;;;17.40;15.30;;;37.50;71.80;;;;;;4898153;29;20239;-75
2023/06/22 09:32:00;;;;;;;16.48;15.13;;;37.30;70.20;;;;;;4898211;29;20215;-76
2023/06/22 09:34:26;;;;;;;20.13;18.10;;;37.60;71.70;;;;;;4898246;29;20191;-76
2023/06/22 09:36:52;;;;;;;16.48;15.13;;;37.60;67.90;;;;;;4897728;29;20619;-76
2023/06/22 09:39:20;;;;;;;17.77;16.50;;;37.40;68.10;;;;;;4897854;29;20243;-76
2023/06/22 09:41:46;;;;;;;16.50;15.20;;;37.60;68.40;;;;;;4897874;29;20199;-76
2023/06/22 09:44:12;;;;;;;18.60;13.55;;;37.20;69.20;;;;;;4897905;29;20258;-75
2023/06/22 09:46:37;;;;;;;24.48;22.45;;;36.90;70.20;;;;;;4897847;29;20346;-76
2023/06/22 09:49:03;;;;;;;19.40;17.88;;;37.20;70.40;;;;;;4897379;29;20732;-75
2023/06/22 09:51:29;;;;;;;18.90;17.15;;;37.20;70.30;;;;;;4897883;29;20196;-76
2023/06/22 09:53:55;;;;;;;18.42;16.70;;;37.00;70.20;;;;;;4897557;29;20198;-75
2023/06/22 09:56:21;;;;;;;18.88;16.83;;;36.90;68.90;;;;;;4896407;29;20207;-77
2023/06/22 09:58:47;;;;;;;18.63;16.35;;;37.30;68.80;;;;;;4897058;29;20211;-76
2023/06/22 10:01:16;;;;;;;18.00;16.40;;;37.20;67.60;;;;;;4897488;29;20192;-75
2023/06/22 10:03:42;;;;;;;18.95;17.35;;;37.10;68.00;;;;;;4897645;29;20337;-75
2023/06/22 10:06:08;;;;;;;18.70;17.00;;;37.40;68.20;;;;;;4897430;29;20203;-75
2023/06/22 10:08:37;;;;;;;18.38;9.18;;;38.10;67.30;;;;;;4897365;29;20222;-75
2023/06/22 10:11:03;;;;;;;12.05;10.50;;;39.10;64.10;;;;;;4897362;29;20196;-75
2023/06/22 10:13:29;;;;;;;11.32;7.30;;;39.50;62.10;;;;;;4897531;29;20187;-75
2023/06/22 10:15:55;;;;;;;10.38;7.38;;;39.70;60.30;;;;;;4898017;29;20227;-75
2023/06/22 10:18:21;;;;;;;13.60;9.52;;;39.30;60.40;;;;;;4897103;29;20227;-75
2023/06/22 10:20:52;;;;;;;11.38;10.02;;;38.70;61.50;;;;;;4897344;29;20571;-75
2023/06/22 10:23:18;;;;;;;11.82;7.63;;;38.60;60.90;;;;;;4897369;29;20740;-75
2023/06/22 10:25:44;;;;;;;9.68;7.60;;;39.00;61.60;;;;;;4897130;29;20287;-75
2023/06/22 10:28:10;;;;;;;12.43;7.30;;;39.70;60.30;;;;;;4896621;29;20232;-75
2023/06/22 10:30:36;;;;;;;10.30;6.47;;;39.90;59.30;;;;;;4897094;29;20192;-75
2023/06/22 10:33:01;;;;;;;12.52;9.40;;;39.50;58.70;;;;;;4897011;29;20203;-75
2023/06/22 10:35:27;;;;;;;10.65;9.35;;;38.00;60.40;;;;;;4896872;29;20219;-77
2023/06/22 10:37:54;;;;;;;15.27;13.68;;;36.30;64.00;;;;;;4896424;29;20222;-75
2023/06/22 10:40:20;;;;;;;29.35;26.90;;;36.10;64.90;;;;;;4896957;29;20187;-75
2023/06/22 10:42:46;;;;;;;26.60;24.27;;;36.00;66.40;;;;;;4896715;29;20274;-75
2023/06/22 10:45:12;;;;;;;19.00;17.63;;;36.30;65.80;;;;;;4896725;29;20385;-75
2023/06/22 10:47:38;;;;;;;19.17;17.48;;;36.20;66.10;;;;;;4896329;29;20247;-75
2023/06/22 10:50:04;;;;;;;19.65;17.75;;;35.80;65.80;;;;;;4896703;29;20450;-76
2023/06/22 10:52:30;;;;;;;31.08;29.10;;;36.30;66.30;;;;;;4895644;29;20218;-75
2023/06/22 10:54:56;;;;;;;28.85;26.70;;;37.40;63.40;;;;;;4896783;29;20188;-75
2023/06/22 10:57:22;;;;;;;18.23;16.52;;;38.10;61.70;;;;;;4896125;29;20250;-75
2023/06/22 10:59:48;;;;;;;16.70;10.50;;;38.90;60.00;;;;;;4896395;29;20627;-75
2023/06/22 11:02:13;;;;;;;10.85;9.93;;;39.40;58.90;;;;;;4896385;29;20230;-75
2023/06/22 11:04:39;;;;;;;10.38;8.52;;;38.50;59.50;;;;;;4896300;29;20660;-75
2023/06/22 11:07:05;;;;;;;19.08;14.10;;;37.10;61.10;;;;;;4895688;29;20216;-75
2023/06/22 11:09:31;;;;;;;19.63;16.90;;;36.80;63.40;;;;;;4896128;29;20321;-75
2023/06/22 11:11:58;;;;;;;13.40;11.75;;;37.60;61.20;;;;;;4893491;29;20195;-76
2023/06/22 11:14:25;;;;;;;11.10;10.00;;;38.80;59.10;;;;;;4890463;29;20195;-75
2023/06/22 11:16:51;;;;;;;18.73;10.57;;;39.00;58.80;;;;;;4895828;29;20223;-76
2023/06/22 11:19:18;;;;;;;18.98;11.10;;;39.10;57.80;;;;;;4896261;29;20664;-75
2023/06/22 11:21:44;;;;;;;12.13;9.20;;;39.00;58.60;;;;;;4896079;29;20198;-76
2023/06/22 11:24:10;;;;;;;11.18;7.72;;;39.10;58.30;;;;;;4894728;29;20559;-76
2023/06/22 11:26:36;;;;;;;13.65;8.85;;;39.50;57.50;;;;;;4895935;29;20228;-76
2023/06/22 11:29:05;;;;;;;15.25;9.43;;;39.50;57.50;;;;;;4895777;29;20188;-76
2023/06/22 11:31:32;;;;;;;19.40;8.02;;;39.20;57.20;;;;;;4895976;29;20231;-76
2023/06/22 11:33:57;;;;;;;14.50;9.50;;;39.50;56.50;;;;;;4895806;29;20202;-75
2023/06/22 11:36:23;;;;;;;17.05;10.07;;;39.60;55.60;;;;;;4895705;29;20600;-75
2023/06/22 11:38:49;;;;;;;15.23;9.52;;;39.50;56.70;;;;;;4895290;29;20239;-76
2023/06/22 11:41:15;;;;;;;15.65;10.43;;;39.90;55.90;;;;;;4895698;29;20277;-76
2023/06/22 11:43:40;;;;;;;12.30;11.02;;;39.90;55.70;;;;;;4895770;29;20198;-74
2023/06/22 11:46:06;;;;;;;16.00;14.30;;;39.10;55.90;;;;;;4895736;29;20233;-75
2023/06/22 11:48:32;;;;;;;17.15;15.48;;;39.20;56.20;;;;;;4895273;29;20215;-76
2023/06/22 11:50:58;;;;;;;16.58;13.93;;;38.80;56.70;;;;;;4895608;29;20195;-76
2023/06/22 11:53:26;;;;;;;16.30;12.30;;;38.30;57.50;;;;;;4895574;29;20370;-76
2023/06/22 11:55:53;;;;;;;12.57;11.10;;;37.90;58.00;;;;;;4895698;29;20262;-75
2023/06/22 11:58:19;;;;;;;15.20;11.75;;;37.60;58.60;;;;;;4894960;29;20243;-76
2023/06/22 12:00:45;;;;;;;15.30;12.00;;;37.30;59.00;;;;;;4895697;29;20270;-76
2023/06/22 12:03:11;;;;;;;17.50;12.05;;;37.50;59.60;;;;;;4888233;29;20236;-76
2023/06/22 12:05:38;;;;;;;19.90;17.85;;;37.70;57.80;;;;;;4895648;29;20713;-76
2023/06/22 12:08:04;;;;;;;17.73;15.68;;;37.50;57.00;;;;;;4895261;29;20339;-76
2023/06/22 12:10:30;;;;;;;19.67;15.73;;;37.30;57.20;;;;;;4895446;29;20214;-76
2023/06/22 12:12:59;;;;;;;19.75;11.27;;;37.20;57.70;;;;;;4895467;29;20247;-75
2023/06/22 12:15:26;;;;;;;18.00;11.32;;;37.10;58.90;;;;;;4895308;29;20203;-76
2023/06/22 12:17:52;;;;;;;15.15;9.65;;;37.00;58.70;;;;;;4895049;29;20218;-75
2023/06/22 12:20:18;;;;;;;17.60;8.88;;;37.10;58.20;;;;;;4897331;29;20195;-75
2023/06/22 12:22:44;;;;;;;17.33;7.25;;;37.40;58.20;;;;;;4899702;29;20187;-76
2023/06/22 12:25:10;;;;;;;11.88;7.55;;;37.50;59.80;;;;;;4899337;29;20191;-76
2023/06/22 12:27:37;;;;;;;14.40;9.00;;;37.30;59.80;;;;;;4898005;29;20295;-76
2023/06/22 12:30:03;;;;;;;13.77;9.43;;;37.00;60.80;;;;;;4898242;29;20199;-76
2023/06/22 12:32:30;;;;;;;14.48;8.52;;;37.20;60.60;;;;;;4899307;29;20274;-76
2023/06/22 12:34:56;;;;;;;15.82;12.50;;;37.00;61.90;;;;;;4899177;29;20191;-76
2023/06/22 12:37:22;;;;;;;18.02;16.13;;;36.50;63.00;;;;;;4898709;29;20218;-76
2023/06/22 12:39:48;;;;;;;18.75;13.48;;;35.90;64.80;;;;;;4897661;29;20196;-76
2023/06/22 12:42:14;;;;;;;15.15;13.27;;;35.20;66.10;;;;;;4897775;29;20191;-75
2023/06/22 12:44:41;;;;;;;12.95;9.27;;;34.80;66.40;;;;;;4898896;29;20195;-76
2023/06/22 12:47:08;;;;;;;12.75;7.78;;;34.70;66.80;;;;;;4898416;29;20722;-76
2023/06/22 12:49:35;;;;;;;13.80;7.15;;;34.80;67.40;;;;;;4898813;29;20247;-76
2023/06/22 12:52:01;;;;;;;16.73;8.35;;;34.90;67.00;;;;;;4898609;29;20223;-75
2023/06/22 12:54:28;;;;;;;14.93;8.50;;;35.00;67.90;;;;;;4898760;29;20263;-75
2023/06/22 12:56:53;;;;;;;16.17;8.65;;;34.90;67.60;;;;;;4898389;29;20215;-76
2023/06/22 12:59:19;;;;;;;10.88;7.55;;;34.60;67.80;;;;;;4898634;29;20569;-76
2023/06/22 13:01:45;;;;;;;10.40;7.53;;;34.40;68.60;;;;;;4899067;29;20278;-76
2023/06/22 13:04:15;;;;;;;14.68;7.57;;;34.30;69.20;;;;;;4898742;29;20191;-76
2023/06/22 13:06:47;;;;;;;19.27;7.28;;;34.20;69.60;;;;;;4897191;29;20215;-76
2023/06/22 13:09:14;;;;;;;16.67;7.03;;;34.10;69.50;;;;;;4898314;29;20286;-76
2023/06/22 13:11:40;;;;;;;13.70;7.07;;;34.10;69.30;;;;;;4898456;29;20196;-76
2023/06/22 13:14:05;;;;;;;16.27;7.88;;;34.20;69.50;;;;;;4898264;29;20587;-76
2023/06/22 13:16:31;;;;;;;15.57;7.13;;;34.30;69.10;;;;;;4898202;29;20291;-76
2023/06/22 13:18:57;;;;;;;10.38;7.63;;;34.60;68.60;;;;;;4896801;29;20225;-76
2023/06/22 13:21:23;;;;;;;12.50;7.13;;;35.00;68.60;;;;;;4899342;29;20198;-76
2023/06/22 13:23:48;;;;;;;19.25;8.73;;;35.40;67.70;;;;;;4899236;29;20565;-76
2023/06/22 13:26:14;;;;;;;14.30;8.80;;;35.60;68.40;;;;;;4898395;29;20672;-76
2023/06/22 13:28:40;;;;;;;13.35;11.45;;;35.90;66.70;;;;;;4897822;29;20259;-76
2023/06/22 13:31:05;;;;;;;12.23;8.88;;;35.90;67.80;;;;;;4897810;29;20203;-76
2023/06/22 13:33:31;;;;;;;11.95;9.43;;;35.70;69.60;;;;;;4898118;29;20192;-77
2023/06/22 13:35:57;;;;;;;17.70;10.93;;;35.70;68.50;;;;;;4896510;29;20302;-75
2023/06/22 13:38:23;;;;;;;19.30;11.07;;;35.70;68.50;;;;;;4891545;29;20219;-75
2023/06/22 13:40:49;;;;;;;18.05;11.88;;;35.80;67.40;;;;;;4897853;29;20188;-76
2023/06/22 13:43:16;;;;;;;16.15;14.63;;;36.20;66.20;;;;;;4896691;29;20202;-75
2023/06/22 13:45:42;;;;;;;15.43;10.98;;;36.60;65.80;;;;;;4897741;29;20203;-75
2023/06/22 13:48:08;;;;;;;14.73;10.63;;;37.00;66.70;;;;;;4897365;29;20263;-76
2023/06/22 13:50:34;;;;;;;13.82;9.65;;;37.10;65.00;;;;;;4897624;29;20207;-75
2023/06/22 13:53:00;;;;;;;11.18;9.50;;;36.80;65.70;;;;;;4896382;29;20200;-75
2023/06/22 13:55:26;;;;;;;12.23;9.20;;;36.80;63.90;;;;;;4897585;29;20191;-75
2023/06/22 13:57:52;;;;;;;13.80;8.13;;;37.00;64.30;;;;;;4897316;29;20223;-75
2023/06/22 14:00:18;;;;;;;16.10;9.43;;;37.20;65.50;;;;;;4897971;29;20210;-75
2023/06/22 14:02:44;;;;;;;15.93;8.63;;;37.70;63.30;;;;;;4896403;29;20195;-75
2023/06/22 14:05:11;;;;;;;11.98;8.15;;;37.80;62.20;;;;;;4897448;29;20258;-75
2023/06/22 14:07:40;;;;;;;15.25;8.20;;;37.90;61.30;;;;;;4897209;29;20227;-76
2023/06/22 14:10:06;;;;;;;15.05;9.63;;;38.10;60.60;;;;;;4897681;29;20203;-75
2023/06/22 14:12:32;;;;;;;12.95;8.48;;;38.80;60.30;;;;;;4897457;29;20188;-75
2023/06/22 14:14:57;;;;;;;15.23;7.18;;;39.20;61.30;;;;;;4897444;29;20664;-75
2023/06/22 14:17:25;;;;;;;11.95;7.40;;;39.00;60.80;;;;;;4896737;29;20226;-75
2023/06/22 14:19:55;;;;;;;17.50;8.25;;;38.80;60.50;;;;;;4897464;29;20195;-75
2023/06/22 14:22:21;;;;;;;14.98;10.02;;;39.00;60.60;;;;;;4897240;29;20290;-75
2023/06/22 14:24:48;;;;;;;10.93;8.73;;;39.20;60.20;;;;;;4897242;29;20195;-75
2023/06/22 14:27:13;;;;;;;13.55;11.05;;;38.90;61.80;;;;;;4895781;29;20208;-74
2023/06/22 14:29:39;;;;;;;14.85;12.60;;;38.80;59.80;;;;;;4897619;29;20195;-75
2023/06/22 14:32:06;;;;;;;14.20;11.32;;;38.70;59.30;;;;;;4889029;29;20557;-75
2023/06/22 14:34:32;;;;;;;12.50;8.65;;;38.50;59.10;;;;;;4897462;29;20194;-75
2023/06/22 14:36:58;;;;;;;14.60;9.10;;;38.00;60.50;;;;;;4896871;29;20250;-75
2023/06/22 14:39:24;;;;;;;19.23;9.68;;;37.50;62.80;;;;;;4897080;29;20255;-75
2023/06/22 14:41:50;;;;;;;15.20;9.88;;;37.40;61.20;;;;;;4895647;29;20609;-75
2023/06/22 14:44:15;;;;;;;13.68;8.52;;;37.20;63.00;;;;;;4897468;29;20247;-75
2023/06/22 14:46:41;;;;;;;25.85;10.35;;;37.00;63.50;;;;;;4897158;29;20212;-75
2023/06/22 14:49:07;;;;;;;10.65;8.70;;;36.60;64.20;;;;;;4888497;29;20192;-75
2023/06/22 14:51:33;;;;;;;16.27;9.07;;;36.70;62.50;;;;;;4896743;29;20195;-75
2023/06/22 14:53:58;;;;;;;12.38;7.60;;;37.80;63.00;;;;;;4896570;29;20196;-75
2023/06/22 14:56:24;;;;;;;16.15;10.52;;;38.50;58.90;;;;;;4896492;29;20258;-75
2023/06/22 14:58:50;;;;;;;18.52;13.13;;;38.70;58.10;;;;;;4895995;29;20218;-75
2023/06/22 15:01:19;;;;;;;20.95;19.00;;;38.10;56.70;;;;;;4896399;29;20282;-75
2023/06/22 15:03:45;;;;;;;10.27;8.05;;;36.90;57.20;;;;;;4896464;29;20183;-75
2023/06/22 15:06:10;;;;;;;15.98;9.43;;;36.20;58.40;;;;;;4896370;29;20211;-75
2023/06/22 15:08:40;;;;;;;13.63;9.20;;;35.90;58.50;;;;;;4895999;29;20199;-76
2023/06/22 15:11:07;;;;;;;17.80;15.85;;;35.70;59.80;;;;;;4896314;29;20210;-76
2023/06/22 15:13:35;;;;;;;17.35;14.98;;;35.70;59.60;;;;;;4896347;29;20198;-76
2023/06/22 15:16:03;;;;;;;16.85;8.05;;;36.40;58.80;;;;;;4895984;29;20227;-74
2023/06/22 15:18:29;;;;;;;18.48;15.32;;;37.60;58.00;;;;;;4895828;29;20314;-74
2023/06/22 15:20:55;;;;;;;25.92;23.70;;;38.20;55.80;;;;;;4896307;29;20290;-75
2023/06/22 15:23:21;;;;;;;22.77;20.75;;;38.80;55.40;;;;;;4896316;29;20187;-74
2023/06/22 15:25:46;;;;;;;18.27;14.77;;;39.10;55.30;;;;;;4896176;29;20224;-73